Terminal Aerodrome Forecast
Issued by NWS

Home | Current Version | Previous Version | Text Only | Print | Product List | Glossary On
Versions: 1 2 3 4 5 6 7 8 9 10 11 12
000
FTUS42 KMLB 011722
TAFSUA
TAF
KSUA 011722Z 0118/0218 34006KT P6SM SCT040
     FM011900 11009KT P6SM SCT040
     FM020200 26004KT P6SM SCT250
     FM021400 10008KT P6SM SCT030=

USA.gov is the U.S. government's official web portal to all federal, state and local government web resources and services.